Time;durP1;ratioP1;P1;durP2;ratioP2;P2;SDS_P1;SDS_P2;PMS_P1;PMS_P2;Temp;Humidity;BMP_temperature;BMP_pressure;BME280_temperature;BME280_humidity;BME280_pressure;Samples;Min_cycle;Max_cycle;Signal;HPM_P1;HPM_P2
2023/05/24 00:00:43;;;;;;;10.10;2.47;;;9.50;99.90;;;;;;5033418;28;20451;-80
2023/05/24 00:03:09;;;;;;;8.63;2.63;;;9.40;99.90;;;;;;5032525;28;20465;-81
2023/05/24 00:05:36;;;;;;;10.20;2.00;;;9.40;99.90;;;;;;5033293;28;20483;-80
2023/05/24 00:08:04;;;;;;;10.10;3.03;;;9.40;99.90;;;;;;5033281;28;20837;-81
2023/05/24 00:10:33;;;;;;;5.70;2.20;;;9.30;99.90;;;;;;5032838;28;20472;-79
2023/05/24 00:13:01;;;;;;;10.03;2.90;;;9.30;1.00;;;;;;5032477;28;20451;-80
2023/05/24 00:15:28;;;;;;;7.23;2.10;;;9.30;1.00;;;;;;5033210;28;20453;-81
2023/05/24 00:17:55;;;;;;;5.70;2.40;;;9.30;1.00;;;;;;5036987;28;20452;-80
2023/05/24 00:20:21;;;;;;;10.90;2.40;;;9.30;99.90;;;;;;5036531;28;20490;-81
2023/05/24 00:22:48;;;;;;;5.93;2.03;;;9.20;1.00;;;;;;5037387;28;20456;-80
2023/05/24 00:25:15;;;;;;;10.30;2.27;;;9.20;1.00;;;;;;5040544;28;20547;-82
2023/05/24 00:27:42;;;;;;;6.53;1.73;;;9.20;1.00;;;;;;5043432;28;20603;-82
2023/05/24 00:30:10;;;;;;;9.27;2.50;;;9.20;1.00;;;;;;5043615;28;20486;-81
2023/05/24 00:32:37;;;;;;;5.97;1.97;;;9.20;1.00;;;;;;5058470;28;20483;-79
2023/05/24 00:35:05;;;;;;;7.57;2.23;;;9.20;1.00;;;;;;5050262;28;20525;-81
2023/05/24 00:37:32;;;;;;;9.97;3.30;;;9.10;1.00;;;;;;5036420;28;20444;-81
2023/05/24 00:40:00;;;;;;;12.97;2.80;;;9.10;1.00;;;;;;5036078;28;20482;-81
2023/05/24 00:42:27;;;;;;;7.87;1.90;;;9.00;1.00;;;;;;5037469;28;20522;-80
2023/05/24 00:44:53;;;;;;;6.17;1.70;;;9.00;1.00;;;;;;5036823;28;20479;-81
2023/05/24 00:47:22;;;;;;;7.77;2.23;;;8.90;1.00;;;;;;5036779;28;20455;-80
2023/05/24 00:49:49;;;;;;;9.40;2.43;;;8.80;1.00;;;;;;5027267;28;20872;-80
2023/05/24 00:52:16;;;;;;;5.83;2.10;;;8.80;1.00;;;;;;5017598;28;20449;-82
2023/05/24 00:54:43;;;;;;;10.00;3.23;;;8.80;1.00;;;;;;5019677;28;20456;-80
2023/05/24 00:57:12;;;;;;;11.70;2.73;;;8.70;1.00;;;;;;5025451;28;20456;-80
2023/05/24 00:59:40;;;;;;;6.77;2.20;;;8.70;1.00;;;;;;5036974;28;20475;-81
2023/05/24 01:02:07;;;;;;;7.67;2.73;;;8.60;1.00;;;;;;5036764;28;20834;-80
2023/05/24 01:04:36;;;;;;;8.10;2.60;;;8.50;1.00;;;;;;5034755;28;20456;-81
2023/05/24 01:07:14;;;;;;;6.90;1.80;;;8.50;1.00;;;;;;5036327;28;20456;-80
2023/05/24 01:09:52;;;;;;;17.40;2.93;;;8.50;1.00;;;;;;5025636;28;20534;-81
2023/05/24 01:12:27;;;;;;;6.73;2.03;;;8.40;1.00;;;;;;5016911;28;20434;-80
2023/05/24 01:15:09;;;;;;;8.47;2.50;;;8.40;1.00;;;;;;5032071;28;20453;-80
2023/05/24 01:17:45;;;;;;;7.40;2.07;;;8.40;1.00;;;;;;5036279;28;20456;-80
2023/05/24 01:20:17;;;;;;;8.60;2.80;;;8.40;1.00;;;;;;5035652;28;20502;-80
2023/05/24 01:23:10;;;;;;;6.57;2.50;;;8.30;1.00;;;;;;5035907;28;20448;-80
2023/05/24 01:26:03;;;;;;;9.10;2.80;;;8.30;1.70;;;;;;5033488;28;20913;-81
2023/05/24 01:28:33;;;;;;;7.73;2.57;;;8.20;1.00;;;;;;5035517;28;20457;-80
2023/05/24 01:31:00;;;;;;;7.50;2.70;;;8.10;1.00;;;;;;5035641;28;20805;-80
2023/05/24 01:33:27;;;;;;;4.67;2.10;;;8.10;26.60;;;;;;5035901;28;20450;-79
2023/05/24 01:35:54;;;;;;;8.13;4.27;;;8.00;52.20;;;;;;5035427;28;20455;-80
2023/05/24 01:38:21;;;;;;;6.87;2.83;;;8.00;74.20;;;;;;5035562;28;20452;-80
2023/05/24 01:40:52;;;;;;;11.67;2.90;;;8.00;96.40;;;;;;5036148;28;20486;-81
2023/05/24 01:43:31;;;;;;;8.93;2.57;;;8.00;92.00;;;;;;5034879;28;20458;-80
2023/05/24 01:46:06;;;;;;;6.60;2.80;;;8.00;92.40;;;;;;5034597;28;20882;-81
2023/05/24 01:48:39;;;;;;;9.93;2.90;;;8.00;69.90;;;;;;5035935;28;20489;-82
2023/05/24 01:51:10;;;;;;;8.77;2.47;;;8.00;82.10;;;;;;5035811;28;20997;-81
2023/05/24 01:53:41;;;;;;;8.17;3.23;;;8.00;94.00;;;;;;5035766;28;20606;-80
2023/05/24 01:56:11;;;;;;;11.10;4.20;;;8.00;90.50;;;;;;5035018;28;20440;-82
2023/05/24 01:58:40;;;;;;;11.07;2.90;;;7.90;64.60;;;;;;5035485;28;20490;-79
2023/05/24 02:01:09;;;;;;;7.70;2.60;;;7.90;98.60;;;;;;5036120;28;20542;-81
2023/05/24 02:03:37;;;;;;;15.13;4.07;;;7.90;99.90;;;;;;5035571;28;20484;-81
2023/05/24 02:06:04;;;;;;;7.03;2.23;;;7.80;99.90;;;;;;5033596;28;20488;-80
2023/05/24 02:08:31;;;;;;;6.90;2.97;;;7.80;99.90;;;;;;5034331;28;20466;-79
2023/05/24 02:10:58;;;;;;;5.93;2.57;;;7.80;99.90;;;;;;5034770;28;20455;-81
2023/05/24 02:13:25;;;;;;;5.50;2.30;;;7.80;99.90;;;;;;5034711;28;20538;-81
2023/05/24 02:15:53;;;;;;;10.33;3.33;;;7.80;99.90;;;;;;5033845;28;21150;-80
2023/05/24 02:18:21;;;;;;;8.67;2.40;;;7.80;99.90;;;;;;5034820;28;20461;-81
2023/05/24 02:20:48;;;;;;;5.00;2.13;;;7.70;99.90;;;;;;5035079;28;20951;-79
2023/05/24 02:23:15;;;;;;;6.90;2.73;;;7.70;99.90;;;;;;5034788;28;20465;-80
2023/05/24 02:25:42;;;;;;;6.30;2.83;;;7.70;99.90;;;;;;5034207;28;20570;-80
2023/05/24 02:28:09;;;;;;;10.03;2.63;;;7.70;99.90;;;;;;5034382;28;20542;-81
2023/05/24 02:30:37;;;;;;;5.07;2.53;;;7.70;99.90;;;;;;5035171;28;20511;-81
2023/05/24 02:33:04;;;;;;;6.87;2.70;;;7.70;99.90;;;;;;5034672;28;20464;-82
2023/05/24 02:35:33;;;;;;;9.47;2.93;;;7.70;99.90;;;;;;5038642;28;20462;-81
2023/05/24 02:38:00;;;;;;;7.20;2.43;;;7.70;99.90;;;;;;5041194;28;20458;-82
2023/05/24 02:40:27;;;;;;;10.10;2.50;;;7.60;99.90;;;;;;5040614;28;20497;-82
2023/05/24 02:42:53;;;;;;;6.57;2.30;;;7.70;99.90;;;;;;5041830;28;20454;-83
2023/05/24 02:45:20;;;;;;;6.40;2.40;;;7.70;99.90;;;;;;5046185;28;20482;-80
2023/05/24 02:47:47;;;;;;;6.07;2.50;;;7.60;99.90;;;;;;5054787;28;20452;-81
2023/05/24 02:50:14;;;;;;;7.67;2.80;;;7.60;99.90;;;;;;5034839;28;20587;-79
2023/05/24 02:52:42;;;;;;;7.53;2.90;;;7.50;99.90;;;;;;5034495;28;20454;-81
2023/05/24 02:55:10;;;;;;;11.60;3.03;;;7.50;99.90;;;;;;5033423;28;20449;-81
2023/05/24 02:57:37;;;;;;;8.43;2.37;;;7.50;99.90;;;;;;5034592;28;20506;-82
2023/05/24 03:00:05;;;;;;;9.10;3.37;;;7.50;99.90;;;;;;5034207;28;20476;-80
2023/05/24 03:02:37;;;;;;;7.77;3.10;;;7.50;99.90;;;;;;5033672;28;20452;-81
2023/05/24 03:05:04;;;;;;;9.50;3.50;;;7.50;99.90;;;;;;5028286;28;20473;-81
2023/05/24 03:07:31;;;;;;;10.33;2.80;;;7.40;99.90;;;;;;5034275;28;20440;-81
2023/05/24 03:09:59;;;;;;;7.90;3.03;;;7.40;99.90;;;;;;5034787;28;20479;-80
2023/05/24 03:12:26;;;;;;;12.27;2.50;;;7.40;99.90;;;;;;5034357;28;20813;-79
2023/05/24 03:14:53;;;;;;;8.27;3.93;;;7.40;99.90;;;;;;5028893;28;20466;-81
2023/05/24 03:17:20;;;;;;;14.90;3.70;;;7.40;99.90;;;;;;5024553;28;20541;-81
2023/05/24 03:19:46;;;;;;;9.67;3.57;;;7.40;99.90;;;;;;5034305;28;20508;-81
2023/05/24 03:22:13;;;;;;;8.33;2.93;;;7.40;99.90;;;;;;5034781;28;20832;-80
2023/05/24 03:24:40;;;;;;;9.00;3.10;;;7.30;99.90;;;;;;5033130;28;20465;-81
2023/05/24 03:27:08;;;;;;;9.43;3.00;;;7.30;99.90;;;;;;5034274;28;20484;-81
2023/05/24 03:29:35;;;;;;;6.40;2.47;;;7.30;99.90;;;;;;5033914;28;20551;-81
2023/05/24 03:32:02;;;;;;;8.83;3.07;;;7.30;99.90;;;;;;5034117;28;20808;-80
2023/05/24 03:34:29;;;;;;;14.70;3.50;;;7.40;99.90;;;;;;5032434;28;20547;-80
2023/05/24 03:36:55;;;;;;;11.40;4.20;;;7.40;99.90;;;;;;5033121;28;20445;-81
2023/05/24 03:39:22;;;;;;;16.30;4.30;;;7.40;99.90;;;;;;5035262;28;21049;-81
2023/05/24 03:41:49;;;;;;;10.67;3.67;;;7.40;99.90;;;;;;5034949;28;20461;-80
2023/05/24 03:44:17;;;;;;;7.37;3.13;;;7.40;99.90;;;;;;5034389;28;20444;-81
2023/05/24 03:46:44;;;;;;;6.70;3.70;;;7.40;99.90;;;;;;5033753;28;20497;-82
2023/05/24 03:49:11;;;;;;;9.23;2.93;;;7.40;99.90;;;;;;5035897;28;20475;-81
2023/05/24 03:51:37;;;;;;;12.87;3.23;;;7.40;99.90;;;;;;5037665;28;20899;-79
2023/05/24 03:54:04;;;;;;;10.53;3.70;;;7.40;99.90;;;;;;5038001;28;20463;-83
2023/05/24 03:56:31;;;;;;;8.60;2.60;;;7.40;99.90;;;;;;5033279;28;20846;-81
2023/05/24 03:59:02;;;;;;;12.00;3.80;;;7.40;99.90;;;;;;5037533;28;20470;-83
2023/05/24 04:01:31;;;;;;;9.33;3.50;;;7.40;99.90;;;;;;5038122;28;21142;-82
2023/05/24 04:03:58;;;;;;;10.93;3.53;;;7.40;99.90;;;;;;5037227;28;20442;-81
2023/05/24 04:06:27;;;;;;;10.07;4.07;;;7.40;99.90;;;;;;5029006;28;20857;-80
2023/05/24 04:08:55;;;;;;;8.53;3.60;;;7.50;99.90;;;;;;5037653;28;20926;-81
2023/05/24 04:11:22;;;;;;;9.00;3.37;;;7.50;99.90;;;;;;5036794;28;20466;-81
2023/05/24 04:13:51;;;;;;;9.00;3.80;;;7.50;99.90;;;;;;5038041;28;20479;-80
2023/05/24 04:16:17;;;;;;;9.60;3.70;;;7.60;99.90;;;;;;5037214;28;20494;-81
2023/05/24 04:18:46;;;;;;;10.20;3.37;;;7.60;99.90;;;;;;5037373;28;20513;-79
2023/05/24 04:21:13;;;;;;;6.97;3.97;;;7.70;99.90;;;;;;5033215;28;20450;-80
2023/05/24 04:23:40;;;;;;;8.30;4.10;;;7.80;99.90;;;;;;5034729;28;20459;-80
2023/05/24 04:26:09;;;;;;;9.90;3.73;;;8.00;99.90;;;;;;5037279;28;20517;-79
2023/05/24 04:28:36;;;;;;;8.37;3.03;;;8.20;99.90;;;;;;5038647;28;21002;-81
2023/05/24 04:31:04;;;;;;;11.60;4.90;;;8.40;99.90;;;;;;5068831;22;20498;-80
2023/05/24 04:33:31;;;;;;;12.33;4.43;;;8.60;99.90;;;;;;5057592;28;20460;-80
2023/05/24 04:36:00;;;;;;;10.70;4.40;;;8.70;99.90;;;;;;5058080;28;20453;-78
2023/05/24 04:38:28;;;;;;;9.60;3.50;;;8.70;99.90;;;;;;5043177;28;20454;-79
2023/05/24 04:40:58;;;;;;;12.43;4.40;;;8.70;99.90;;;;;;5050338;28;20899;-80
2023/05/24 04:43:26;;;;;;;11.60;4.57;;;8.70;99.90;;;;;;5048525;28;20511;-80
2023/05/24 04:45:53;;;;;;;13.87;4.70;;;8.80;99.90;;;;;;5059254;28;20453;-80
2023/05/24 04:48:22;;;;;;;8.73;4.43;;;8.70;99.90;;;;;;5058639;28;20451;-80
2023/05/24 04:50:50;;;;;;;12.73;4.90;;;8.80;99.90;;;;;;5057990;28;20569;-80
2023/05/24 04:53:19;;;;;;;9.20;4.43;;;8.70;99.90;;;;;;5057053;28;20460;-79
2023/05/24 04:55:46;;;;;;;12.53;4.47;;;8.80;99.90;;;;;;5057807;28;20466;-79
2023/05/24 04:58:13;;;;;;;18.73;5.77;;;8.90;99.90;;;;;;5058663;28;20459;-79
2023/05/24 05:00:40;;;;;;;11.27;6.30;;;9.00;99.90;;;;;;5057997;28;20483;-80
2023/05/24 05:03:07;;;;;;;11.47;4.87;;;9.00;99.90;;;;;;5056978;28;20455;-79
2023/05/24 05:05:34;;;;;;;8.93;4.17;;;9.10;99.90;;;;;;5056975;28;20464;-79
2023/05/24 05:08:01;;;;;;;11.60;5.07;;;9.10;99.90;;;;;;5057251;28;20495;-78
2023/05/24 05:10:29;;;;;;;11.43;4.90;;;9.20;99.90;;;;;;5056869;28;20919;-82
2023/05/24 05:12:56;;;;;;;12.20;5.20;;;9.30;99.90;;;;;;5057752;28;20451;-83
2023/05/24 05:15:24;;;;;;;14.20;5.10;;;9.30;97.40;;;;;;5051388;28;20462;-79
2023/05/24 05:17:51;;;;;;;14.57;5.80;;;9.40;58.40;;;;;;5051003;28;20531;-78
2023/05/24 05:20:18;;;;;;;18.10;5.80;;;9.40;42.20;;;;;;5056690;28;20471;-78
2023/05/24 05:22:46;;;;;;;12.57;5.10;;;9.50;28.10;;;;;;5057736;28;20458;-78
2023/05/24 05:25:13;;;;;;;11.50;6.03;;;9.50;37.30;;;;;;5056833;28;20528;-79
2023/05/24 05:27:41;;;;;;;13.17;6.90;;;9.60;22.40;;;;;;5054855;28;20486;-78
2023/05/24 05:30:09;;;;;;;15.90;6.83;;;9.70;19.90;;;;;;5056221;28;20483;-78
2023/05/24 05:32:36;;;;;;;14.97;6.90;;;9.70;16.60;;;;;;5055828;28;20454;-79
2023/05/24 05:35:03;;;;;;;18.60;6.50;;;9.80;16.20;;;;;;5055048;28;20459;-78
2023/05/24 05:37:30;;;;;;;13.10;5.40;;;9.80;27.80;;;;;;5036642;28;20963;-79
2023/05/24 05:39:57;;;;;;;18.20;7.17;;;9.90;15.00;;;;;;5051571;28;20474;-78
2023/05/24 05:42:24;;;;;;;17.30;6.60;;;9.90;10.90;;;;;;5055304;28;20455;-79
2023/05/24 05:44:52;;;;;;;20.73;6.57;;;10.00;28.60;;;;;;5055924;28;20448;-78
2023/05/24 05:47:19;;;;;;;12.80;6.83;;;10.00;71.80;;;;;;5055701;28;20480;-78
2023/05/24 05:49:46;;;;;;;14.00;5.67;;;10.00;50.30;;;;;;5055647;28;20487;-82
2023/05/24 05:52:12;;;;;;;13.40;6.17;;;10.00;32.40;;;;;;5056359;28;20461;-81
2023/05/24 05:54:39;;;;;;;18.07;6.63;;;10.10;63.10;;;;;;5056199;28;20462;-81
2023/05/24 05:57:09;;;;;;;17.93;7.47;;;10.30;62.10;;;;;;5056694;28;20527;-81
2023/05/24 05:59:37;;;;;;;16.00;6.40;;;10.60;26.50;;;;;;5055993;28;20464;-81
2023/05/24 06:02:06;;;;;;;20.43;6.20;;;10.90;47.10;;;;;;5056282;28;20464;-81
2023/05/24 06:04:33;;;;;;;19.30;6.00;;;11.20;1.00;;;;;;5056567;28;20448;-81
2023/05/24 06:07:00;;;;;;;10.33;4.83;;;11.40;1.00;;;;;;5056943;28;21002;-82
2023/05/24 06:09:27;;;;;;;19.93;5.70;;;11.60;1.00;;;;;;5056868;28;20451;-82
2023/05/24 06:11:53;;;;;;;13.33;5.20;;;11.70;1.00;;;;;;5057180;28;20453;-82
2023/05/24 06:14:21;;;;;;;14.33;5.43;;;11.80;1.00;;;;;;5057376;28;20453;-83
2023/05/24 06:16:48;;;;;;;18.70;5.67;;;11.90;1.00;;;;;;5057241;28;20452;-82
2023/05/24 06:19:17;;;;;;;14.70;4.90;;;11.90;1.00;;;;;;5057252;28;20455;-83
2023/05/24 06:21:46;;;;;;;15.13;7.43;;;12.00;1.00;;;;;;5057463;28;20478;-83
2023/05/24 06:24:13;;;;;;;17.10;5.47;;;12.10;1.00;;;;;;5060403;28;20552;-82
2023/05/24 06:26:40;;;;;;;18.43;6.47;;;12.20;1.00;;;;;;5058027;28;20484;-82
2023/05/24 06:29:08;;;;;;;13.37;5.23;;;12.10;1.00;;;;;;5058346;28;20451;-82
2023/05/24 06:31:38;;;;;;;17.87;5.00;;;12.20;1.00;;;;;;5058843;28;20493;-82
2023/05/24 06:34:04;;;;;;;16.20;4.70;;;12.30;1.00;;;;;;5058642;28;20954;-83
2023/05/24 06:36:41;;;;;;;23.90;5.60;;;12.40;1.00;;;;;;5038445;28;20455;-84
2023/05/24 06:39:09;;;;;;;10.67;4.27;;;12.50;1.00;;;;;;5051108;28;20455;-83
2023/05/24 06:41:36;;;;;;;14.23;5.87;;;12.80;99.90;;;;;;5060147;28;20490;-83
2023/05/24 06:44:02;;;;;;;19.63;5.57;;;13.00;99.90;;;;;;5058996;28;20459;-83
2023/05/24 06:46:30;;;;;;;15.63;4.90;;;13.20;99.90;;;;;;5063328;28;20455;-83
2023/05/24 06:48:57;;;;;;;17.80;5.47;;;13.10;1.00;;;;;;5056171;28;20494;-82
2023/05/24 06:51:24;;;;;;;14.73;4.80;;;13.20;1.00;;;;;;5049172;28;20481;-82
2023/05/24 06:53:52;;;;;;;18.70;6.20;;;13.20;1.00;;;;;;5047245;28;20477;-82
2023/05/24 06:56:19;;;;;;;13.80;5.10;;;13.40;99.90;;;;;;5005020;28;20552;-81
2023/05/24 06:58:46;;;;;;;16.27;4.80;;;13.30;99.90;;;;;;5050907;28;20469;-82
2023/05/24 07:01:14;;;;;;;16.77;4.70;;;13.60;99.90;;;;;;5051350;28;21043;-82
2023/05/24 07:03:41;;;;;;;14.47;5.23;;;13.90;99.90;;;;;;5041311;28;20471;-84
2023/05/24 07:06:08;;;;;;;14.37;4.90;;;14.20;99.90;;;;;;5045546;28;20441;-83
2023/05/24 07:08:36;;;;;;;14.60;4.50;;;14.30;99.90;;;;;;5039553;28;20494;-83
2023/05/24 07:11:05;;;;;;;13.53;5.03;;;14.30;1.00;;;;;;5051282;28;20986;-83
2023/05/24 07:13:31;;;;;;;12.73;3.80;;;14.40;1.00;;;;;;5053135;28;20465;-81
2023/05/24 07:15:58;;;;;;;18.53;5.20;;;14.50;1.00;;;;;;5047865;28;20462;-83
2023/05/24 07:18:25;;;;;;;16.60;4.60;;;14.80;99.90;;;;;;5042647;28;20445;-81
2023/05/24 07:20:53;;;;;;;13.50;4.00;;;14.70;50.30;;;;;;5044156;28;20473;-81
2023/05/24 07:23:20;;;;;;;13.47;4.10;;;14.70;1.00;;;;;;5036849;28;20488;-82
2023/05/24 07:25:47;;;;;;;16.53;4.70;;;14.70;20.10;;;;;;5049683;28;20463;-82
2023/05/24 07:28:18;;;;;;;11.97;3.73;;;14.50;1.00;;;;;;5042994;28;20499;-82
2023/05/24 07:30:45;;;;;;;13.83;4.13;;;14.10;1.00;;;;;;5041987;28;20513;-82
2023/05/24 07:33:12;;;;;;;19.30;4.67;;;13.90;99.90;;;;;;5050697;28;20459;-82
2023/05/24 07:35:39;;;;;;;13.50;5.00;;;14.00;40.30;;;;;;5049476;28;20457;-82
2023/05/24 07:38:06;;;;;;;13.60;3.57;;;14.10;99.90;;;;;;5048457;28;20459;-81
2023/05/24 07:40:33;;;;;;;12.13;4.20;;;14.30;1.00;;;;;;5047927;28;20473;-81
2023/05/24 07:43:00;;;;;;;13.00;4.00;;;14.50;99.90;;;;;;5042609;28;20461;-82
2023/05/24 07:45:28;;;;;;;11.97;4.30;;;14.50;99.90;;;;;;5043141;28;20546;-81
2023/05/24 07:47:55;;;;;;;14.77;4.37;;;14.80;1.00;;;;;;5043744;28;20507;-82
2023/05/24 07:50:22;;;;;;;13.60;3.90;;;14.90;99.90;;;;;;5045831;28;20483;-83
2023/05/24 07:52:50;;;;;;;13.80;3.37;;;15.10;99.90;;;;;;5044467;28;20462;-81
2023/05/24 07:55:16;;;;;;;16.30;3.80;;;15.20;99.90;;;;;;5035919;28;20474;-82
2023/05/24 07:57:48;;;;;;;11.00;3.80;;;15.20;99.90;;;;;;5041007;28;20474;-81
2023/05/24 08:00:24;;;;;;;11.30;3.40;;;15.10;99.90;;;;;;5041053;28;20482;-83
2023/05/24 08:02:52;;;;;;;13.23;4.00;;;15.10;99.90;;;;;;5048024;28;20880;-83
2023/05/24 08:05:19;;;;;;;8.33;3.20;;;15.10;99.90;;;;;;5049282;28;20452;-84
2023/05/24 08:07:46;;;;;;;9.40;3.67;;;15.10;99.90;;;;;;5053356;28;20487;-82
2023/05/24 08:10:13;;;;;;;12.30;3.20;;;15.10;99.90;;;;;;5040466;28;20506;-82
2023/05/24 08:12:40;;;;;;;11.47;3.70;;;15.10;99.90;;;;;;5040577;28;20471;-83
2023/05/24 08:15:07;;;;;;;14.80;3.80;;;14.80;65.10;;;;;;5044802;28;20485;-82
2023/05/24 08:17:34;;;;;;;11.53;3.27;;;14.60;99.90;;;;;;5037483;28;20825;-83
2023/05/24 08:20:08;;;;;;;20.50;4.90;;;14.50;52.30;;;;;;5035545;28;21059;-83
2023/05/24 08:22:36;;;;;;;12.93;3.73;;;14.20;89.10;;;;;;5042332;28;20472;-82
2023/05/24 08:25:02;;;;;;;10.20;4.10;;;14.20;99.90;;;;;;5052116;28;21046;-82
2023/05/24 08:27:30;;;;;;;14.00;4.27;;;14.20;99.90;;;;;;5039326;28;20488;-83
2023/05/24 08:29:56;;;;;;;13.80;4.03;;;14.10;99.90;;;;;;5043858;28;20484;-84
2023/05/24 08:32:26;;;;;;;11.90;3.80;;;14.10;99.90;;;;;;5040562;28;20453;-83
2023/05/24 08:34:54;;;;;;;9.73;4.17;;;14.30;1.00;;;;;;5045760;28;20457;-85
2023/05/24 08:37:22;;;;;;;12.33;4.40;;;14.50;99.90;;;;;;5042862;28;20460;-83
2023/05/24 08:39:49;;;;;;;12.63;4.27;;;14.80;99.90;;;;;;5046857;28;20532;-84
2023/05/24 08:42:16;;;;;;;12.30;3.80;;;15.00;30.00;;;;;;5054834;28;20985;-83
2023/05/24 08:44:48;;;;;;;18.70;4.77;;;15.60;99.90;;;;;;5043964;28;20516;-84
2023/05/24 08:47:16;;;;;;;11.03;3.60;;;16.00;1.00;;;;;;5049793;28;20483;-84
2023/05/24 08:49:42;;;;;;;13.00;3.60;;;15.90;1.00;;;;;;5047421;28;20534;-84
2023/05/24 08:52:11;;;;;;;11.70;3.33;;;15.80;1.00;;;;;;5063457;28;20519;-84
2023/05/24 08:54:41;;;;;;;8.27;3.63;;;15.70;1.00;;;;;;5072224;28;20454;-81
2023/05/24 08:57:10;;;;;;;9.47;3.73;;;15.50;1.00;;;;;;5051319;28;21019;-83
2023/05/24 08:59:39;;;;;;;7.67;3.27;;;15.40;1.00;;;;;;5044404;28;20456;-83
2023/05/24 09:02:08;;;;;;;11.50;4.43;;;15.10;1.00;;;;;;5038549;28;20577;-83
2023/05/24 09:04:39;;;;;;;14.20;4.10;;;15.10;1.00;;;;;;5037547;28;20456;-84
2023/05/24 09:07:07;;;;;;;12.73;3.87;;;15.10;1.00;;;;;;5039608;28;20474;-84
2023/05/24 09:09:34;;;;;;;18.40;4.33;;;15.40;1.00;;;;;;5055385;28;20546;-84
2023/05/24 09:12:07;;;;;;;20.73;5.50;;;15.70;1.00;;;;;;5058746;28;20454;-85
2023/05/24 09:14:34;;;;;;;8.17;3.70;;;15.80;1.00;;;;;;5047433;28;21019;-84
2023/05/24 09:17:02;;;;;;;9.23;3.70;;;16.00;1.00;;;;;;5038745;28;20539;-84
2023/05/24 09:19:28;;;;;;;11.03;3.30;;;16.20;1.00;;;;;;5048165;28;20486;-84
2023/05/24 09:21:57;;;;;;;13.87;3.67;;;16.50;1.00;;;;;;5044215;28;20456;-85
2023/05/24 09:24:24;;;;;;;7.40;3.23;;;17.00;1.00;;;;;;5035585;28;20452;-83
2023/05/24 09:26:50;;;;;;;20.10;4.47;;;17.40;1.00;;;;;;5049516;28;20451;-84
2023/05/24 09:29:23;;;;;;;13.23;3.53;;;17.70;1.00;;;;;;5056742;28;20482;-84
2023/05/24 09:31:50;;;;;;;8.03;2.53;;;17.70;1.00;;;;;;5058592;28;20544;-83
2023/05/24 09:34:17;;;;;;;11.07;2.97;;;17.60;1.00;;;;;;5058842;28;20521;-84
2023/05/24 09:36:47;;;;;;;8.93;3.60;;;17.50;1.00;;;;;;5058842;28;20812;-83
2023/05/24 09:39:15;;;;;;;13.97;3.13;;;17.30;1.00;;;;;;5057762;28;20451;-83
2023/05/24 09:41:44;;;;;;;11.03;3.40;;;17.00;1.00;;;;;;5057978;28;20467;-82
2023/05/24 09:44:13;;;;;;;13.00;4.00;;;16.80;1.00;;;;;;5056243;28;20502;-83
2023/05/24 09:46:41;;;;;;;9.97;3.23;;;16.60;1.00;;;;;;5055689;28;20467;-83
2023/05/24 09:49:08;;;;;;;11.00;3.63;;;16.50;1.00;;;;;;5057286;28;21033;-83
2023/05/24 09:51:37;;;;;;;12.73;3.67;;;16.70;1.00;;;;;;5057206;28;20543;-84
2023/05/24 09:54:06;;;;;;;6.97;2.70;;;17.10;1.00;;;;;;5057020;28;20448;-83
2023/05/24 09:56:34;;;;;;;9.27;3.57;;;17.50;1.00;;;;;;5057609;28;20452;-83
2023/05/24 09:59:07;;;;;;;13.80;3.53;;;17.60;1.00;;;;;;5056503;28;20484;-82
2023/05/24 10:01:34;;;;;;;11.47;3.07;;;17.90;1.00;;;;;;5055848;28;20913;-82
2023/05/24 10:04:05;;;;;;;8.30;2.90;;;18.00;1.00;;;;;;5057448;28;20519;-84
2023/05/24 10:06:36;;;;;;;9.70;3.13;;;18.00;1.00;;;;;;5057239;28;20437;-84
2023/05/24 10:09:05;;;;;;;11.23;3.37;;;18.40;1.00;;;;;;5057247;28;20476;-83
2023/05/24 10:11:32;;;;;;;7.43;3.10;;;18.80;99.90;;;;;;5057598;28;20466;-84
2023/05/24 10:13:59;;;;;;;12.30;3.10;;;18.90;99.90;;;;;;5057039;28;20443;-83
2023/05/24 10:16:26;;;;;;;9.13;4.20;;;18.90;99.90;;;;;;5056797;28;20545;-84
2023/05/24 10:18:53;;;;;;;18.50;4.97;;;18.40;99.90;;;;;;5057050;28;20808;-83
2023/05/24 10:21:23;;;;;;;8.93;3.20;;;18.00;99.90;;;;;;5056614;28;20469;-84
2023/05/24 10:23:56;;;;;;;10.00;3.47;;;17.70;99.90;;;;;;5057276;28;20455;-83
2023/05/24 10:26:25;;;;;;;10.73;3.30;;;17.20;99.90;;;;;;5058323;28;20915;-84
2023/05/24 10:28:57;;;;;;;7.10;2.50;;;16.90;99.90;;;;;;5057332;28;20487;-82
2023/05/24 10:31:28;;;;;;;14.10;3.63;;;16.70;99.90;;;;;;5058629;28;20480;-84
2023/05/24 10:33:58;;;;;;;9.40;3.53;;;16.50;99.90;;;;;;5056308;28;20455;-83
2023/05/24 10:36:26;;;;;;;12.90;3.87;;;16.30;1.00;;;;;;5057171;28;20451;-83
2023/05/24 10:38:54;;;;;;;11.33;3.60;;;16.20;99.90;;;;;;5056515;28;20454;-84
2023/05/24 10:41:21;;;;;;;11.80;3.30;;;16.20;99.90;;;;;;5057716;28;20468;-85
2023/05/24 10:43:48;;;;;;;10.53;4.10;;;16.00;99.90;;;;;;5057781;28;20517;-84
2023/05/24 10:46:16;;;;;;;11.50;3.57;;;15.90;99.90;;;;;;5056971;28;20452;-84
2023/05/24 10:48:43;;;;;;;11.93;3.10;;;16.00;1.00;;;;;;5057834;28;20480;-85
2023/05/24 10:51:38;;;;;;;12.10;4.50;;;16.00;1.00;;;;;;5058891;28;20887;-85
2023/05/24 10:54:26;;;;;;;13.60;3.23;;;16.20;1.00;;;;;;5058413;28;20539;-85
2023/05/24 10:56:53;;;;;;;9.07;3.00;;;17.10;1.00;;;;;;5036797;28;20505;-85
2023/05/24 10:59:27;;;;;;;10.33;3.30;;;17.90;1.00;;;;;;5057158;28;21408;-85
2023/05/24 11:01:56;;;;;;;9.47;3.37;;;18.60;99.90;;;;;;5064314;28;20507;-83
2023/05/24 11:04:23;;;;;;;12.33;3.87;;;18.60;99.90;;;;;;5057717;28;20839;-85
2023/05/24 11:06:55;;;;;;;13.00;3.47;;;18.70;99.90;;;;;;5053736;28;20830;-85
2023/05/24 11:09:23;;;;;;;9.50;3.70;;;18.70;99.90;;;;;;5046169;28;20501;-85
2023/05/24 11:11:54;;;;;;;15.70;3.27;;;18.50;99.90;;;;;;5040512;28;20479;-85
2023/05/24 11:14:24;;;;;;;9.87;4.03;;;18.40;99.90;;;;;;5053435;28;20456;-85
2023/05/24 11:16:51;;;;;;;11.33;4.20;;;18.20;99.90;;;;;;5052321;28;20466;-85
2023/05/24 11:19:20;;;;;;;10.17;3.30;;;18.10;99.90;;;;;;5053013;28;20878;-85
2023/05/24 11:21:52;;;;;;;8.23;3.03;;;17.90;99.90;;;;;;5049408;28;20548;-84
2023/05/24 11:24:22;;;;;;;16.13;4.00;;;17.60;99.90;;;;;;5040941;28;20458;-84
2023/05/24 11:26:55;;;;;;;9.33;3.43;;;17.40;99.90;;;;;;5041044;28;20441;-85
2023/05/24 11:29:23;;;;;;;7.50;3.37;;;17.10;99.90;;;;;;5051058;28;20476;-85
2023/05/24 11:32:03;;;;;;;9.70;3.10;;;16.80;99.90;;;;;;5051161;28;20483;-84
2023/05/24 11:34:30;;;;;;;9.50;3.47;;;16.60;1.00;;;;;;5051500;28;20479;-85
2023/05/24 11:37:02;;;;;;;9.93;3.57;;;16.50;1.00;;;;;;5052302;28;20471;-84
2023/05/24 11:39:35;;;;;;;12.40;4.00;;;16.30;1.00;;;;;;5044455;28;20541;-84
2023/05/24 11:42:05;;;;;;;13.47;5.23;;;16.10;1.00;;;;;;5053776;28;20502;-85
2023/05/24 11:44:39;;;;;;;10.13;4.07;;;16.00;1.00;;;;;;5056448;28;20470;-85
2023/05/24 11:47:08;;;;;;;13.83;3.93;;;16.00;1.00;;;;;;5035647;28;20526;-85
2023/05/24 11:49:42;;;;;;;10.20;4.40;;;16.00;1.00;;;;;;5035862;28;20495;-85
2023/05/24 11:52:14;;;;;;;13.20;4.20;;;15.90;1.00;;;;;;5055785;28;20538;-85
2023/05/24 11:54:42;;;;;;;10.33;3.80;;;16.00;1.00;;;;;;5056424;28;20461;-85
2023/05/24 11:57:12;;;;;;;9.13;3.90;;;15.90;1.00;;;;;;5056911;28;20456;-85
2023/05/24 11:59:41;;;;;;;7.03;2.90;;;15.80;1.00;;;;;;5053803;28;20877;-85
2023/05/24 12:02:08;;;;;;;12.30;3.13;;;15.80;1.00;;;;;;5057654;28;20457;-85
2023/05/24 12:04:37;;;;;;;9.90;3.20;;;15.90;1.00;;;;;;5059330;28;20460;-86
2023/05/24 12:07:04;;;;;;;12.20;3.87;;;15.90;1.00;;;;;;5053633;28;20497;-85
2023/05/24 12:09:31;;;;;;;11.30;3.70;;;16.00;1.00;;;;;;5054654;28;20485;-86
2023/05/24 12:12:00;;;;;;;12.23;4.07;;;16.10;1.00;;;;;;5058858;28;20462;-86
2023/05/24 12:14:29;;;;;;;9.90;3.20;;;16.20;1.00;;;;;;5056847;28;20462;-86
2023/05/24 12:16:56;;;;;;;12.50;3.50;;;16.30;1.00;;;;;;5052914;28;20449;-85
2023/05/24 12:19:25;;;;;;;13.50;3.47;;;16.50;1.00;;;;;;5053055;28;20508;-85
2023/05/24 12:21:55;;;;;;;12.33;3.50;;;16.90;1.00;;;;;;5068464;28;20455;-85
2023/05/24 12:24:35;;;;;;;10.77;3.30;;;17.40;1.00;;;;;;5075309;28;20475;-84
2023/05/24 12:27:09;;;;;;;10.47;3.77;;;17.90;1.00;;;;;;5074704;28;20437;-84
2023/05/24 12:29:39;;;;;;;8.87;3.43;;;18.60;1.00;;;;;;5059604;28;20903;-85
2023/05/24 12:32:11;;;;;;;10.60;3.47;;;19.00;99.90;;;;;;5058913;28;20478;-83
2023/05/24 12:34:38;;;;;;;8.00;3.97;;;19.00;99.90;;;;;;5054500;28;20480;-84
2023/05/24 12:37:04;;;;;;;15.13;3.60;;;19.10;99.90;;;;;;5057325;28;20449;-85
2023/05/24 12:39:33;;;;;;;11.20;3.73;;;18.80;99.90;;;;;;5056951;28;20523;-84
2023/05/24 12:42:01;;;;;;;9.60;3.73;;;18.50;99.90;;;;;;5056292;28;20460;-84
2023/05/24 12:44:30;;;;;;;9.20;4.03;;;18.00;99.90;;;;;;5056437;28;20459;-84
2023/05/24 12:46:58;;;;;;;9.10;3.30;;;17.70;99.90;;;;;;5056276;28;20502;-85
2023/05/24 12:49:25;;;;;;;11.70;3.60;;;17.40;99.90;;;;;;5056080;28;20475;-84
2023/05/24 12:51:54;;;;;;;8.63;3.37;;;17.40;99.90;;;;;;5056226;28;20448;-85
2023/05/24 12:54:23;;;;;;;8.40;3.17;;;17.30;99.90;;;;;;5057771;28;20538;-85